Time;durP1;ratioP1;P1;durP2;ratioP2;P2;SDS_P1;SDS_P2;PMS_P1;PMS_P2;Temp;Humidity;BMP_temperature;BMP_pressure;BME280_temperature;BME280_humidity;BME280_pressure;Samples;Min_cycle;Max_cycle;Signal;HPM_P1;HPM_P2
2023/07/22 00:00:06;;;;;;;2.08;1.20;;;;;;;;;;5046041;28;20037;-77
2023/07/22 00:02:37;;;;;;;3.30;1.10;;;;;;;;;;5037336;28;20056;-78
2023/07/22 00:05:12;;;;;;;0.90;0.90;;;;;;;;;;5041979;28;20057;-78
2023/07/22 00:07:49;;;;;;;2.58;1.25;;;;;;;;;;5040657;28;20530;-77
2023/07/22 00:10:18;;;;;;;3.20;1.48;;;;;;;;;;5044375;28;20067;-77
2023/07/22 00:12:55;;;;;;;1.30;1.20;;;;;;;;;;5033687;28;20112;-78
2023/07/22 00:15:30;;;;;;;1.15;1.10;;;;;;;;;;5019705;28;20220;-77
2023/07/22 00:18:02;;;;;;;1.20;1.20;;;;;;;;;;5038241;28;20047;-77
2023/07/22 00:20:34;;;;;;;1.13;1.13;;;;;;;;;;5040153;28;20044;-77
2023/07/22 00:23:10;;;;;;;3.95;1.17;;;;;;;;;;5031115;28;20091;-77
2023/07/22 00:25:45;;;;;;;1.15;1.08;;;;;;;;;;5032218;28;20041;-77
2023/07/22 00:28:22;;;;;;;1.30;1.20;;;;;;;;;;5042136;28;20091;-78
2023/07/22 00:30:57;;;;;;;3.13;1.10;;;;;;;;;;5020742;28;20550;-77
2023/07/22 00:33:39;;;;;;;2.38;1.05;;;;;;;;;;5026688;28;20441;-77
2023/07/22 00:36:09;;;;;;;2.08;1.00;;;;;;;;;;5036048;28;20491;-77
2023/07/22 00:38:52;;;;;;;1.15;1.10;;;;;;;;;;5037774;28;20438;-77
2023/07/22 00:41:31;;;;;;;2.83;1.10;;;;;;;;;;5027412;28;20467;-77
2023/07/22 00:44:03;;;;;;;1.20;1.20;;;;;;;;;;5036780;28;20525;-77
2023/07/22 00:49:42;;;;;;;4.68;1.27;;;;;;;;;;5012474;22;20071;-86
2023/07/22 00:52:09;;;;;;;1.10;1.10;;;;;;;;;;5009574;28;20069;-86
2023/07/22 00:54:37;;;;;;;1.63;1.20;;;;;;;;;;5026791;28;20056;-88
2023/07/22 00:57:04;;;;;;;2.72;1.40;;;;;;;;;;5023354;28;20466;-87
2023/07/22 00:59:32;;;;;;;1.30;1.20;;;;;;;;;;5022433;28;20053;-88
2023/07/22 01:01:59;;;;;;;1.13;1.13;;;;;;;;;;5020721;28;20053;-88
2023/07/22 01:04:27;;;;;;;1.63;1.05;;;;;;;;;;5007480;28;20107;-89
2023/07/22 01:06:55;;;;;;;1.10;1.10;;;;;;;;;;5014161;28;20046;-88
2023/07/22 01:09:22;;;;;;;2.20;1.27;;;;;;;;;;5017861;28;20068;-88
2023/07/22 01:11:50;;;;;;;1.15;1.05;;;;;;;;;;5020861;28;20057;-88
2023/07/22 01:14:17;;;;;;;7.13;3.08;;;;;;;;;;5022251;28;20393;-88
2023/07/22 01:16:45;;;;;;;2.22;1.30;;;;;;;;;;4983993;28;20125;-89
2023/07/22 01:19:14;;;;;;;1.20;1.10;;;;;;;;;;5009619;28;20634;-88
2023/07/22 01:21:42;;;;;;;1.33;1.20;;;;;;;;;;5008131;28;20096;-87
2023/07/22 01:24:10;;;;;;;1.40;1.20;;;;;;;;;;5012195;28;20042;-88
2023/07/22 01:26:38;;;;;;;1.13;1.13;;;;;;;;;;5040176;23;20074;-75
2023/07/22 01:29:06;;;;;;;1.48;1.17;;;;;;;;;;5007271;28;20320;-75
2023/07/22 01:31:38;;;;;;;4.95;1.38;;;;;;;;;;4997550;28;20086;-78
2023/07/22 01:34:05;;;;;;;1.27;1.10;;;;;;;;;;5002828;28;20246;-78
2023/07/22 01:36:33;;;;;;;2.65;1.10;;;;;;;;;;4996261;28;20052;-78
2023/07/22 01:39:00;;;;;;;1.23;1.10;;;;;;;;;;4989310;28;20554;-78
2023/07/22 01:41:28;;;;;;;2.55;1.17;;;;;;;;;;4995245;28;20042;-78
2023/07/22 01:43:55;;;;;;;1.40;1.30;;;;;;;;;;4993571;28;20054;-78
2023/07/22 01:46:23;;;;;;;1.42;1.30;;;;;;;;;;4980430;28;20050;-79
2023/07/22 01:48:51;;;;;;;1.55;1.45;;;;;;;;;;5001107;28;20125;-78
2023/07/22 01:51:18;;;;;;;4.90;1.63;;;;;;;;;;4981116;28;20108;-78
2023/07/22 01:53:45;;;;;;;1.55;1.30;;;;;;;;;;4980456;28;20053;-78
2023/07/22 01:56:13;;;;;;;2.20;1.00;;;;;;;;;;4979724;28;20053;-78
2023/07/22 01:58:40;;;;;;;2.35;1.40;;;;;;;;;;4984542;28;20056;-78
2023/07/22 02:01:08;;;;;;;1.13;1.10;;;;;;;;;;4993971;28;20427;-78
2023/07/22 02:03:35;;;;;;;1.55;1.20;;;;;;;;;;4982705;28;20041;-79
2023/07/22 02:06:03;;;;;;;1.45;1.35;;;;;;;;;;5003258;28;20212;-78
2023/07/22 02:08:31;;;;;;;1.33;1.15;;;;;;;;;;4982040;28;20054;-78
2023/07/22 02:11:03;;;;;;;2.63;1.40;;;;;;;;;;4998746;28;20433;-78
2023/07/22 02:13:31;;;;;;;1.42;1.20;;;;;;;;;;4982080;28;20128;-78
2023/07/22 02:15:59;;;;;;;1.50;1.40;;;;;;;;;;4994574;28;20050;-78
2023/07/22 02:18:27;;;;;;;1.23;1.23;;;;;;;;;;4977173;28;20170;-79
2023/07/22 02:20:55;;;;;;;1.42;1.27;;;;;;;;;;5002265;28;20154;-78
2023/07/22 02:23:22;;;;;;;1.45;1.20;;;;;;;;;;4978609;28;20046;-78
2023/07/22 02:25:53;;;;;;;2.70;1.50;;;;;;;;;;4974386;28;20133;-78
2023/07/22 02:28:21;;;;;;;1.30;1.20;;;;;;;;;;4982239;28;20416;-78
2023/07/22 02:30:50;;;;;;;1.10;1.10;;;;;;;;;;5003303;28;20080;-78
2023/07/22 02:33:17;;;;;;;1.25;1.17;;;;;;;;;;4994843;28;20050;-78
2023/07/22 02:35:44;;;;;;;2.42;1.13;;;;;;;;;;4984944;28;20050;-77
2023/07/22 02:38:14;;;;;;;2.85;1.30;;;;;;;;;;4979346;28;20070;-78
2023/07/22 02:40:41;;;;;;;1.52;1.40;;;;;;;;;;4989434;28;20392;-78
2023/07/22 02:43:10;;;;;;;3.25;1.30;;;;;;;;;;4990727;28;20055;-78
2023/07/22 02:45:38;;;;;;;5.03;1.45;;;;;;;;;;4980741;28;20057;-78
2023/07/22 02:48:05;;;;;;;3.20;1.30;;;;;;;;;;4982467;28;20134;-78
2023/07/22 02:50:33;;;;;;;1.50;1.40;;;;;;;;;;4998515;28;20045;-78
2023/07/22 02:53:00;;;;;;;1.42;1.30;;;;;;;;;;5003585;28;20061;-78
2023/07/22 02:55:28;;;;;;;1.08;0.98;;;;;;;;;;4983552;28;20125;-78
2023/07/22 02:57:55;;;;;;;1.52;1.35;;;;;;;;;;4980332;28;20475;-78
2023/07/22 03:00:25;;;;;;;2.42;1.10;;;;;;;;;;5001447;28;20093;-78
2023/07/22 03:02:55;;;;;;;1.95;1.15;;;;;;;;;;4975274;28;20042;-78
2023/07/22 03:05:25;;;;;;;1.23;1.20;;;;;;;;;;4983934;28;20427;-78
2023/07/22 03:07:53;;;;;;;1.17;1.17;;;;;;;;;;4985796;28;20062;-78
2023/07/22 03:10:20;;;;;;;2.15;1.40;;;;;;;;;;5006492;28;20166;-78
2023/07/22 03:12:48;;;;;;;2.42;1.30;;;;;;;;;;5000684;28;20164;-78
2023/07/22 03:15:15;;;;;;;2.05;1.23;;;;;;;;;;4989889;28;20042;-78
2023/07/22 03:17:43;;;;;;;2.03;1.10;;;;;;;;;;4988060;28;20049;-78
2023/07/22 03:20:14;;;;;;;1.42;1.33;;;;;;;;;;5001532;28;20133;-78
2023/07/22 03:22:42;;;;;;;2.85;1.40;;;;;;;;;;4983558;28;20073;-78
2023/07/22 03:25:10;;;;;;;1.27;1.17;;;;;;;;;;4978751;28;20043;-78
2023/07/22 03:27:38;;;;;;;1.33;1.33;;;;;;;;;;4999168;28;20053;-78
2023/07/22 03:30:07;;;;;;;1.40;1.30;;;;;;;;;;4979489;28;20042;-78
2023/07/22 03:32:35;;;;;;;1.00;1.00;;;;;;;;;;4988497;28;20205;-78
2023/07/22 03:35:03;;;;;;;1.15;1.13;;;;;;;;;;4976539;28;20137;-77
2023/07/22 03:37:31;;;;;;;1.35;1.30;;;;;;;;;;5000619;28;20054;-78
2023/07/22 03:39:59;;;;;;;1.35;1.27;;;;;;;;;;4991509;28;20051;-78
2023/07/22 03:42:26;;;;;;;1.45;1.35;;;;;;;;;;4998484;28;20039;-78
2023/07/22 03:44:53;;;;;;;1.40;1.40;;;;;;;;;;5001951;28;20085;-78
2023/07/22 03:47:21;;;;;;;3.10;1.40;;;;;;;;;;4983922;28;20143;-78
2023/07/22 03:49:48;;;;;;;1.70;1.60;;;;;;;;;;4991791;28;20057;-78
2023/07/22 03:52:18;;;;;;;1.38;1.27;;;;;;;;;;4997935;28;20508;-78
2023/07/22 03:54:45;;;;;;;1.95;1.60;;;;;;;;;;4981542;28;20527;-77
2023/07/22 03:57:13;;;;;;;1.85;1.38;;;;;;;;;;5004575;28;20558;-78
2023/07/22 03:59:47;;;;;;;1.50;1.40;;;;;;;;;;4982994;28;20054;-77
2023/07/22 04:02:14;;;;;;;1.67;1.58;;;;;;;;;;5003886;28;20046;-78
2023/07/22 04:04:42;;;;;;;1.52;1.33;;;;;;;;;;4979549;28;20050;-77
2023/07/22 04:07:10;;;;;;;2.22;1.50;;;;;;;;;;4978580;28;20050;-78
2023/07/22 04:09:38;;;;;;;1.95;1.63;;;;;;;;;;4999581;28;20343;-78
2023/07/22 04:12:06;;;;;;;1.58;1.33;;;;;;;;;;4988100;28;20045;-77
2023/07/22 04:14:34;;;;;;;1.52;1.42;;;;;;;;;;4989774;28;20096;-77
2023/07/22 04:17:03;;;;;;;3.53;1.75;;;;;;;;;;5003205;28;20049;-77
2023/07/22 04:19:31;;;;;;;2.42;1.65;;;;;;;;;;4998005;28;20065;-78
2023/07/22 04:22:03;;;;;;;2.08;1.48;;;;;;;;;;4998665;28;20050;-77
2023/07/22 04:24:31;;;;;;;;;;;;;;;;;;5004885;28;20427;-77
2023/07/22 04:26:59;;;;;;;2.05;1.55;;;;;;;;;;4975919;28;19921;-77
2023/07/22 04:29:27;;;;;;;2.70;1.63;;;;;;;;;;4984175;28;20104;-78
2023/07/22 04:31:58;;;;;;;1.60;1.50;;;;;;;;;;4978311;28;20100;-77
2023/07/22 04:34:28;;;;;;;1.63;1.52;;;;;;;;;;5005699;28;20137;-77
2023/07/22 04:36:56;;;;;;;2.20;2.00;;;;;;;;;;4978459;28;20049;-77
2023/07/22 04:39:24;;;;;;;1.65;1.58;;;;;;;;;;4992301;28;20050;-77
2023/07/22 04:41:52;;;;;;;2.53;1.50;;;;;;;;;;4994556;28;20050;-77
2023/07/22 04:44:20;;;;;;;1.80;1.70;;;;;;;;;;4996708;28;20558;-77
2023/07/22 04:46:47;;;;;;;1.60;1.50;;;;;;;;;;4997171;28;20042;-77
2023/07/22 04:49:17;;;;;;;1.52;1.42;;;;;;;;;;4994530;28;20042;-77
2023/07/22 04:51:46;;;;;;;1.77;1.67;;;;;;;;;;4987945;28;20064;-78
2023/07/22 04:54:13;;;;;;;1.80;1.70;;;;;;;;;;4999382;28;20073;-77
2023/07/22 04:56:41;;;;;;;1.80;1.70;;;;;;;;;;4989846;28;20070;-77
2023/07/22 04:59:09;;;;;;;2.03;1.83;;;;;;;;;;4966847;28;20089;-77
2023/07/22 05:01:37;;;;;;;1.83;1.73;;;;;;;;;;4991489;28;20046;-77
2023/07/22 05:04:06;;;;;;;2.63;1.80;;;;;;;;;;4992932;28;20516;-78
2023/07/22 05:06:33;;;;;;;1.95;1.85;;;;;;;;;;4992657;28;20524;-78
2023/07/22 05:09:00;;;;;;;2.53;1.80;;;;;;;;;;4993960;28;20049;-77
2023/07/22 05:11:28;;;;;;;1.70;1.60;;;;;;;;;;4987705;28;20263;-77
2023/07/22 05:13:56;;;;;;;2.95;2.20;;;;;;;;;;4990597;28;20049;-77
2023/07/22 05:16:23;;;;;;;2.60;1.90;;;;;;;;;;4989533;28;20076;-78
2023/07/22 05:18:51;;;;;;;3.95;1.90;;;;;;;;;;4973467;28;20461;-78
2023/07/22 05:21:18;;;;;;;2.10;2.00;;;;;;;;;;4988805;28;20319;-78
2023/07/22 05:23:46;;;;;;;2.10;2.00;;;;;;;;;;4997990;28;20038;-77
2023/07/22 05:26:13;;;;;;;2.30;2.17;;;;;;;;;;4998342;28;20106;-77
2023/07/22 05:28:40;;;;;;;2.70;2.50;;;;;;;;;;4993146;28;20077;-77
2023/07/22 05:31:08;;;;;;;2.00;1.90;;;;;;;;;;4989305;28;20057;-78
2023/07/22 05:33:35;;;;;;;2.60;2.40;;;;;;;;;;4989640;28;20487;-78
2023/07/22 05:36:04;;;;;;;2.80;2.55;;;;;;;;;;4995388;28;20050;-77
2023/07/22 05:38:31;;;;;;;12.80;3.10;;;;;;;;;;4989397;28;20128;-78
2023/07/22 05:40:59;;;;;;;9.00;3.00;;;;;;;;;;4987545;28;20046;-78
2023/07/22 05:43:26;;;;;;;3.97;2.40;;;;;;;;;;4995865;28;20052;-77
2023/07/22 05:45:54;;;;;;;3.50;2.40;;;;;;;;;;4976976;28;20496;-77
2023/07/22 05:48:21;;;;;;;4.40;2.65;;;;;;;;;;4994123;28;20061;-77
2023/07/22 05:50:49;;;;;;;4.45;2.25;;;;;;;;;;4993074;28;20304;-77
2023/07/22 05:53:16;;;;;;;2.35;2.15;;;;;;;;;;4987855;28;20046;-78
2023/07/22 05:55:44;;;;;;;2.40;2.20;;;;;;;;;;4990260;28;20057;-77
2023/07/22 05:58:18;;;;;;;3.50;2.28;;;;;;;;;;4996392;28;20034;-78
2023/07/22 06:00:51;;;;;;;2.53;2.30;;;;;;;;;;4969960;28;20062;-77
2023/07/22 06:03:19;;;;;;;2.38;2.20;;;;;;;;;;4978165;28;20061;-78
2023/07/22 06:05:46;;;;;;;2.47;2.30;;;;;;;;;;5000488;28;20132;-78
2023/07/22 06:08:14;;;;;;;2.30;2.10;;;;;;;;;;5001470;28;20050;-77
2023/07/22 06:10:41;;;;;;;3.15;1.98;;;;;;;;;;5003274;28;20065;-78
2023/07/22 06:13:11;;;;;;;1.98;1.88;;;;;;;;;;4989966;28;20815;-78
2023/07/22 06:15:38;;;;;;;2.10;1.90;;;;;;;;;;4991539;28;20050;-78
2023/07/22 06:18:08;;;;;;;1.90;1.80;;;;;;;;;;5001063;28;20096;-77
2023/07/22 06:20:36;;;;;;;3.92;1.65;;;;;;;;;;4999893;28;20049;-78
2023/07/22 06:23:22;;;;;;;;;;;;;;;;;;;;;
2023/07/22 06:25:49;;;;;;;2.60;1.70;;;;;;;;;;4993035;28;20172;-78
2023/07/22 06:28:17;;;;;;;3.70;2.08;;;;;;;;;;4997322;28;20054;-77
2023/07/22 06:30:44;;;;;;;1.90;1.80;;;;;;;;;;4991491;28;20046;-78
2023/07/22 06:33:11;;;;;;;1.83;1.73;;;;;;;;;;4968624;28;20065;-78
2023/07/22 06:35:39;;;;;;;2.67;1.65;;;;;;;;;;4995144;28;20058;-77
2023/07/22 06:38:06;;;;;;;2.30;2.20;;;;;;;;;;4997195;28;20054;-78
2023/07/22 06:40:34;;;;;;;2.40;2.20;;;;;;;;;;4996200;28;20057;-77
2023/07/22 06:43:01;;;;;;;2.80;2.00;;;;;;;;;;5002696;28;20041;-77
2023/07/22 06:45:29;;;;;;;2.17;2.08;;;;;;;;;;4997337;28;20042;-78
2023/07/22 06:47:56;;;;;;;1.80;1.70;;;;;;;;;;4994844;28;20146;-78
2023/07/22 06:50:24;;;;;;;2.05;1.55;;;;;;;;;;5002324;28;20476;-77
2023/07/22 06:52:51;;;;;;;3.10;1.95;;;;;;;;;;4999996;28;20124;-78
2023/07/22 06:55:18;;;;;;;1.95;1.85;;;;;;;;;;4989828;28;20046;-77
2023/07/22 06:57:46;;;;;;;2.35;2.15;;;;;;;;;;4994093;28;20710;-78
2023/07/22 07:00:13;;;;;;;2.03;1.92;;;;;;;;;;4996675;28;20042;-79
2023/07/22 07:02:41;;;;;;;2.05;1.95;;;;;;;;;;4994588;28;20057;-77
2023/07/22 07:05:09;;;;;;;2.75;1.88;;;;;;;;;;4985072;28;20038;-78
2023/07/22 07:07:36;;;;;;;2.00;1.90;;;;;;;;;;5002413;28;20054;-79
2023/07/22 07:10:04;;;;;;;2.42;1.83;;;;;;;;;;4973621;28;20042;-79
2023/07/22 07:12:31;;;;;;;2.97;1.50;;;;;;;;;;4989855;28;20058;-77
2023/07/22 07:14:59;;;;;;;1.73;1.63;;;;;;;;;;4994552;28;20121;-78
2023/07/22 07:17:27;;;;;;;1.95;1.85;;;;;;;;;;5001350;28;20432;-78
2023/07/22 07:19:54;;;;;;;1.90;1.80;;;;;;;;;;4995997;28;20385;-78
2023/07/22 07:22:22;;;;;;;1.90;1.80;;;;;;;;;;4990752;28;20100;-77
2023/07/22 07:24:49;;;;;;;1.70;1.60;;;;;;;;;;4996509;28;20054;-77
2023/07/22 07:27:17;;;;;;;4.30;1.92;;;;;;;;;;4994810;28;20110;-77
2023/07/22 07:29:44;;;;;;;2.97;1.75;;;;;;;;;;4997821;28;20053;-79
2023/07/22 07:32:21;;;;;;;3.55;2.08;;;;;;;;;;5004049;28;20130;-78
2023/07/22 07:34:48;;;;;;;8.43;2.20;;;;;;;;;;4994839;28;20058;-78
2023/07/22 07:37:16;;;;;;;3.58;1.80;;;;;;;;;;4991021;28;20077;-77
2023/07/22 07:39:43;;;;;;;1.73;1.60;;;;;;;;;;5001262;28;20360;-78
2023/07/22 07:42:11;;;;;;;1.60;1.50;;;;;;;;;;4998915;28;20133;-77
2023/07/22 07:44:38;;;;;;;1.55;1.50;;;;;;;;;;4990901;28;20054;-79
2023/07/22 07:47:06;;;;;;;1.80;1.70;;;;;;;;;;4994233;28;20073;-78
2023/07/22 07:49:34;;;;;;;1.67;1.45;;;;;;;;;;4999537;28;20092;-77
2023/07/22 07:52:01;;;;;;;1.52;1.42;;;;;;;;;;4996187;28;20042;-77
2023/07/22 07:54:29;;;;;;;2.35;1.60;;;;;;;;;;4999226;28;20041;-78
2023/07/22 07:56:59;;;;;;;1.83;1.73;;;;;;;;;;4997635;28;20132;-78
2023/07/22 07:59:26;;;;;;;2.55;1.48;;;;;;;;;;4999006;28;20077;-77
2023/07/22 08:01:54;;;;;;;1.85;1.52;;;;;;;;;;5004421;28;20050;-78
2023/07/22 08:04:21;;;;;;;1.38;1.27;;;;;;;;;;4992970;28;20105;-78
2023/07/22 08:06:49;;;;;;;1.67;1.58;;;;;;;;;;4990798;28;20058;-77
2023/07/22 08:09:19;;;;;;;1.65;1.55;;;;;;;;;;4995297;28;20475;-78
2023/07/22 08:11:47;;;;;;;2.15;1.80;;;;;;;;;;4997315;28;20058;-77
2023/07/22 08:14:14;;;;;;;1.60;1.50;;;;;;;;;;4987615;28;20500;-77
2023/07/22 08:16:42;;;;;;;2.47;2.05;;;;;;;;;;4995336;28;20416;-77
2023/07/22 08:19:09;;;;;;;1.48;1.38;;;;;;;;;;4999282;28;20496;-77
2023/07/22 08:21:38;;;;;;;1.05;1.05;;;;;;;;;;4994488;28;20050;-77
2023/07/22 08:24:06;;;;;;;1.80;1.70;;;;;;;;;;4995001;28;20057;-76
2023/07/22 08:26:33;;;;;;;1.90;1.80;;;;;;;;;;5005359;28;20046;-78
2023/07/22 08:29:01;;;;;;;1.65;1.55;;;;;;;;;;4996638;28;20128;-77
2023/07/22 08:31:28;;;;;;;1.77;1.67;;;;;;;;;;4997680;28;20046;-76
2023/07/22 08:33:56;;;;;;;1.75;1.60;;;;;;;;;;4993184;28;20054;-77
2023/07/22 08:36:26;;;;;;;3.15;1.63;;;;;;;;;;5005124;28;20041;-78
2023/07/22 08:38:54;;;;;;;1.50;1.42;;;;;;;;;;4994868;28;20058;-78
2023/07/22 08:41:22;;;;;;;2.45;1.48;;;;;;;;;;4997537;28;20160;-77
2023/07/22 08:43:51;;;;;;;1.95;1.60;;;;;;;;;;4996565;28;20041;-77
2023/07/22 08:46:20;;;;;;;1.52;1.42;;;;;;;;;;4987374;28;20058;-78
2023/07/22 08:48:49;;;;;;;1.25;1.25;;;;;;;;;;4993254;28;20050;-78
2023/07/22 08:51:18;;;;;;;1.40;1.30;;;;;;;;;;4972834;28;20117;-77
2023/07/22 08:53:47;;;;;;;1.45;1.35;;;;;;;;;;4988599;28;20047;-78
2023/07/22 08:56:35;;;;;;;0.90;0.90;;;;;;;;;;4989056;28;20519;-77
2023/07/22 08:59:03;;;;;;;1.10;1.10;;;;;;;;;;4991211;28;20697;-78
2023/07/22 09:01:30;;;;;;;1.20;1.10;;;;;;;;;;4995292;28;20104;-78
2023/07/22 09:03:58;;;;;;;1.58;1.10;;;;;;;;;;4999444;28;20058;-78
2023/07/22 09:06:26;;;;;;;1.60;1.35;;;;;;;;;;4977487;28;20050;-77
2023/07/22 09:08:54;;;;;;;2.70;1.10;;;;;;;;;;4990834;28;20864;-77
2023/07/22 09:11:22;;;;;;;1.20;1.10;;;;;;;;;;4990038;28;20042;-78
2023/07/22 09:13:50;;;;;;;1.38;1.27;;;;;;;;;;4990005;28;20073;-77
2023/07/22 09:16:17;;;;;;;2.25;1.50;;;;;;;;;;4990672;28;20412;-77
2023/07/22 09:18:45;;;;;;;2.17;2.08;;;;;;;;;;4990408;28;20144;-78
2023/07/22 09:21:12;;;;;;;1.40;1.30;;;;;;;;;;4979145;28;20078;-76
2023/07/22 09:23:40;;;;;;;1.77;1.30;;;;;;;;;;4996949;28;20050;-76
2023/07/22 09:26:13;;;;;;;1.30;1.20;;;;;;;;;;4986586;28;20462;-77
2023/07/22 09:28:52;;;;;;;1.50;1.40;;;;;;;;;;4981929;28;20069;-77
2023/07/22 09:31:23;;;;;;;1.30;1.20;;;;;;;;;;4990755;28;20050;-77
2023/07/22 09:33:54;;;;;;;2.88;1.45;;;;;;;;;;4984842;28;20508;-78
2023/07/22 09:36:21;;;;;;;1.35;1.35;;;;;;;;;;4977320;28;20046;-78
2023/07/22 09:39:04;;;;;;;1.33;1.23;;;;;;;;;;4978945;28;20517;-77
2023/07/22 09:41:31;;;;;;;1.30;1.20;;;;;;;;;;4978104;28;20543;-79
2023/07/22 09:44:03;;;;;;;2.15;1.13;;;;;;;;;;4977128;28;20053;-78
2023/07/22 09:46:30;;;;;;;;;;;;;;;;;;4986050;28;20195;-78
2023/07/22 09:49:02;;;;;;;1.55;1.40;;;;;;;;;;4994153;28;19949;-79
2023/07/22 09:51:34;;;;;;;1.10;1.10;;;;;;;;;;4981854;28;20042;-77
2023/07/22 09:54:10;;;;;;;1.10;1.10;;;;;;;;;;4984038;28;20416;-78
2023/07/22 09:56:47;;;;;;;1.10;1.10;;;;;;;;;;4961987;28;20053;-76
2023/07/22 09:59:15;;;;;;;1.50;1.30;;;;;;;;;;4978422;28;20082;-78
2023/07/22 10:01:45;;;;;;;1.20;1.20;;;;;;;;;;4979745;28;20528;-79
2023/07/22 10:04:16;;;;;;;1.75;1.25;;;;;;;;;;4960650;28;20302;-78
2023/07/22 10:06:43;;;;;;;1.35;1.10;;;;;;;;;;4977653;28;20056;-78
2023/07/22 10:09:12;;;;;;;1.33;1.27;;;;;;;;;;4980577;28;20081;-79
2023/07/22 10:11:42;;;;;;;1.17;1.08;;;;;;;;;;4991898;28;21399;-82
2023/07/22 10:14:12;;;;;;;2.20;1.38;;;;;;;;;;4981718;28;20479;-79
2023/07/22 10:16:40;;;;;;;1.05;1.02;;;;;;;;;;4997481;28;20395;-79
2023/07/22 10:19:09;;;;;;;1.58;1.08;;;;;;;;;;4996350;28;20504;-79
2023/07/22 10:21:37;;;;;;;1.30;1.20;;;;;;;;;;4972271;28;20062;-78
2023/07/22 10:24:05;;;;;;;1.15;1.10;;;;;;;;;;4997230;28;20476;-78
2023/07/22 10:26:32;;;;;;;2.15;1.23;;;;;;;;;;4993054;28;20539;-77
2023/07/22 10:29:16;;;;;;;3.50;1.40;;;;;;;;;;4988777;28;20042;-77
2023/07/22 10:31:44;;;;;;;1.52;1.30;;;;;;;;;;4979633;28;20054;-77
2023/07/22 10:34:11;;;;;;;1.63;1.40;;;;;;;;;;4961550;28;20038;-77
2023/07/22 10:36:39;;;;;;;1.50;1.30;;;;;;;;;;4994691;28;20054;-77
2023/07/22 10:39:07;;;;;;;1.17;1.17;;;;;;;;;;4990443;28;20511;-78
2023/07/22 10:41:39;;;;;;;1.17;1.17;;;;;;;;;;4975330;28;20736;-77
2023/07/22 10:44:08;;;;;;;1.25;1.25;;;;;;;;;;4982038;28;20050;-78
2023/07/22 10:46:40;;;;;;;0.90;0.90;;;;;;;;;;4997530;28;20059;-78
2023/07/22 10:49:15;;;;;;;1.38;1.27;;;;;;;;;;5001515;28;20131;-78
2023/07/22 10:51:50;;;;;;;1.20;1.20;;;;;;;;;;5000254;28;20057;-78
2023/07/22 10:54:33;;;;;;;1.25;1.10;;;;;;;;;;4996051;28;20665;-79
2023/07/22 10:57:04;;;;;;;1.25;1.15;;;;;;;;;;5001141;28;20060;-78
2023/07/22 10:59:36;;;;;;;1.00;1.00;;;;;;;;;;4984963;28;20550;-78
2023/07/22 11:02:08;;;;;;;1.00;1.00;;;;;;;;;;4995707;28;20265;-77
2023/07/22 11:04:35;;;;;;;1.25;1.10;;;;;;;;;;4993029;28;20520;-77
2023/07/22 11:07:31;;;;;;;1.10;1.10;;;;;;;;;;4995922;28;20045;-78
2023/07/22 11:10:11;;;;;;;1.00;1.00;;;;;;;;;;4997757;28;20039;-79
2023/07/22 11:12:40;;;;;;;1.13;1.10;;;;;;;;;;4997464;28;20057;-77
2023/07/22 11:15:07;;;;;;;1.10;1.02;;;;;;;;;;4975838;28;20057;-79
2023/07/22 11:17:35;;;;;;;1.17;1.10;;;;;;;;;;4996767;28;20609;-78
2023/07/22 11:20:03;;;;;;;1.40;1.30;;;;;;;;;;4995452;28;20034;-77
2023/07/22 11:22:31;;;;;;;1.20;1.10;;;;;;;;;;4996358;28;20046;-78
2023/07/22 11:24:58;;;;;;;1.15;1.05;;;;;;;;;;4990362;28;20129;-78
2023/07/22 11:27:26;;;;;;;1.30;1.10;;;;;;;;;;4992322;28;20058;-78
2023/07/22 11:29:54;;;;;;;1.02;1.02;;;;;;;;;;4975900;28;20052;-77
2023/07/22 11:32:22;;;;;;;1.23;1.20;;;;;;;;;;4986853;28;20105;-78
2023/07/22 11:34:52;;;;;;;1.08;1.08;;;;;;;;;;4980895;28;20057;-78
2023/07/22 11:37:20;;;;;;;1.30;1.30;;;;;;;;;;4964590;28;20132;-80
2023/07/22 11:39:47;;;;;;;3.20;1.27;;;;;;;;;;4980681;28;20424;-80
2023/07/22 11:42:16;;;;;;;2.10;1.35;;;;;;;;;;4986420;28;20046;-77
2023/07/22 11:44:43;;;;;;;1.30;1.20;;;;;;;;;;4984715;28;20058;-80
2023/07/22 11:47:11;;;;;;;1.08;0.93;;;;;;;;;;4981862;28;20042;-79
2023/07/22 11:49:40;;;;;;;1.45;1.23;;;;;;;;;;4983582;28;20058;-79
2023/07/22 11:52:09;;;;;;;1.30;0.90;;;;;;;;;;4977936;28;20052;-80
2023/07/22 11:54:38;;;;;;;1.30;1.20;;;;;;;;;;4980501;28;20053;-81
2023/07/22 11:57:18;;;;;;;1.10;1.10;;;;;;;;;;4983741;28;20124;-79
2023/07/22 11:59:46;;;;;;;1.00;1.00;;;;;;;;;;4986010;28;20322;-78
2023/07/22 12:02:16;;;;;;;1.27;1.13;;;;;;;;;;4989124;28;20428;-79
2023/07/22 12:04:44;;;;;;;0.93;0.93;;;;;;;;;;4981548;28;20045;-80
2023/07/22 12:07:27;;;;;;;0.93;0.93;;;;;;;;;;4988720;28;20047;-79
2023/07/22 12:09:56;;;;;;;1.02;1.02;;;;;;;;;;4996058;28;20053;-78
2023/07/22 12:12:38;;;;;;;0.90;0.90;;;;;;;;;;4986214;28;20140;-79
2023/07/22 12:15:13;;;;;;;1.00;1.00;;;;;;;;;;4988684;28;20046;-80
2023/07/22 12:18:04;;;;;;;0.90;0.90;;;;;;;;;;4987987;28;20136;-77
2023/07/22 12:20:34;;;;;;;1.20;1.10;;;;;;;;;;4979901;28;20046;-79
2023/07/22 12:23:01;;;;;;;1.13;1.13;;;;;;;;;;4985211;28;20140;-78
2023/07/22 12:25:29;;;;;;;1.00;0.90;;;;;;;;;;4975528;28;20042;-80
2023/07/22 12:27:57;;;;;;;0.90;0.90;;;;;;;;;;4981914;28;20296;-78
2023/07/22 12:30:27;;;;;;;0.98;0.98;;;;;;;;;;4978942;28;20041;-79
2023/07/22 12:32:54;;;;;;;3.47;1.40;;;;;;;;;;4967718;28;20403;-79
2023/07/22 12:35:23;;;;;;;1.00;0.90;;;;;;;;;;4976416;28;20496;-77
2023/07/22 12:37:51;;;;;;;0.90;0.90;;;;;;;;;;4979394;28;20046;-78
2023/07/22 12:40:18;;;;;;;1.70;1.13;;;;;;;;;;4983471;28;20129;-79
2023/07/22 12:42:46;;;;;;;1.00;1.00;;;;;;;;;;4971742;28;20286;-79
2023/07/22 12:45:14;;;;;;;2.30;0.90;;;;;;;;;;4973761;28;20050;-78
2023/07/22 12:47:42;;;;;;;1.02;1.00;;;;;;;;;;4986793;28;20446;-78
2023/07/22 12:50:10;;;;;;;0.93;0.93;;;;;;;;;;4987216;28;20043;-79
2023/07/22 12:52:38;;;;;;;1.00;1.00;;;;;;;;;;4992576;28;20045;-78
2023/07/22 12:55:06;;;;;;;1.08;0.98;;;;;;;;;;4969577;28;20504;-77
2023/07/22 12:57:33;;;;;;;1.00;1.00;;;;;;;;;;4988287;28;20124;-76
2023/07/22 13:00:01;;;;;;;0.90;0.90;;;;;;;;;;4991502;28;20042;-78
2023/07/22 13:02:29;;;;;;;1.23;1.10;;;;;;;;;;4971355;28;20046;-78
2023/07/22 13:04:56;;;;;;;1.85;1.20;;;;;;;;;;4970668;28;20068;-79
2023/07/22 13:07:24;;;;;;;1.20;1.10;;;;;;;;;;4977555;28;20109;-79
2023/07/22 13:09:55;;;;;;;1.00;1.00;;;;;;;;;;4986998;28;20368;-79
2023/07/22 13:12:22;;;;;;;1.20;1.15;;;;;;;;;;4990939;28;20065;-79
2023/07/22 13:14:50;;;;;;;0.90;0.90;;;;;;;;;;4981462;28;20046;-76
2023/07/22 13:17:18;;;;;;;1.23;0.90;;;;;;;;;;4977520;28;20061;-79
2023/07/22 13:19:46;;;;;;;1.58;1.00;;;;;;;;;;4986163;28;20494;-77
2023/07/22 13:22:16;;;;;;;4.03;0.98;;;;;;;;;;5001530;28;20053;-78
2023/07/22 13:24:44;;;;;;;0.90;0.90;;;;;;;;;;4997729;28;20061;-77
2023/07/22 13:27:12;;;;;;;0.80;0.80;;;;;;;;;;5005737;28;20140;-78
2023/07/22 13:29:39;;;;;;;1.58;1.00;;;;;;;;;;4994985;28;20043;-77
2023/07/22 13:32:07;;;;;;;0.98;0.95;;;;;;;;;;4997202;28;20116;-77
2023/07/22 13:34:34;;;;;;;0.90;0.90;;;;;;;;;;4995202;28;20124;-78
2023/07/22 13:37:02;;;;;;;0.90;0.90;;;;;;;;;;5000975;28;20049;-80
2023/07/22 13:39:30;;;;;;;1.02;0.95;;;;;;;;;;5000659;28;20459;-77
2023/07/22 13:42:00;;;;;;;1.20;1.10;;;;;;;;;;4997419;28;20050;-77
2023/07/22 13:44:28;;;;;;;1.33;1.10;;;;;;;;;;5001142;28;20128;-77
2023/07/22 13:46:55;;;;;;;1.92;1.10;;;;;;;;;;4980128;28;20073;-78
2023/07/22 13:49:23;;;;;;;0.90;0.90;;;;;;;;;;4978331;28;20048;-79
2023/07/22 13:51:50;;;;;;;1.20;1.10;;;;;;;;;;4997454;28;20112;-79
2023/07/22 13:54:19;;;;;;;1.33;1.23;;;;;;;;;;5003831;28;20057;-79
2023/07/22 13:56:47;;;;;;;0.90;0.90;;;;;;;;;;5009281;28;20065;-78
2023/07/22 13:59:15;;;;;;;0.80;0.80;;;;;;;;;;5001587;28;20054;-78
2023/07/22 14:01:43;;;;;;;1.00;0.90;;;;;;;;;;5001270;28;20080;-78
2023/07/22 14:04:10;;;;;;;1.58;1.05;;;;;;;;;;4987096;28;20053;-78
2023/07/22 14:06:38;;;;;;;0.90;0.90;;;;;;;;;;5008677;28;20057;-78
2023/07/22 14:09:06;;;;;;;1.02;1.00;;;;;;;;;;4995425;28;20286;-78
2023/07/22 14:11:36;;;;;;;1.30;1.00;;;;;;;;;;4983717;28;20050;-78
2023/07/22 14:14:04;;;;;;;1.00;1.00;;;;;;;;;;4988330;28;20076;-78
2023/07/22 14:16:31;;;;;;;2.40;0.88;;;;;;;;;;4986518;28;20780;-78
2023/07/22 14:18:59;;;;;;;1.20;1.10;;;;;;;;;;4986845;28;20069;-78
2023/07/22 14:21:26;;;;;;;1.15;1.13;;;;;;;;;;4999027;28;20090;-78
2023/07/22 14:23:55;;;;;;;1.38;1.02;;;;;;;;;;5003713;28;20224;-78
2023/07/22 14:26:22;;;;;;;2.38;1.05;;;;;;;;;;5005274;28;20053;-79
2023/07/22 14:28:50;;;;;;;1.25;1.13;;;;;;;;;;5001628;28;20081;-79
2023/07/22 14:31:19;;;;;;;0.98;0.98;;;;;;;;;;4997414;28;20049;-79
2023/07/22 14:33:46;;;;;;;2.25;1.10;;;;;;;;;;5013223;28;20100;-79
2023/07/22 14:36:14;;;;;;;1.30;0.80;;;;;;;;;;5002791;28;20100;-79
2023/07/22 14:38:41;;;;;;;1.25;1.00;;;;;;;;;;4992830;28;20050;-79
2023/07/22 14:41:11;;;;;;;1.80;0.93;;;;;;;;;;4992632;28;20053;-79
2023/07/22 14:43:41;;;;;;;1.50;1.10;;;;;;;;;;4998016;28;20061;-79
2023/07/22 14:46:08;;;;;;;0.93;0.90;;;;;;;;;;5015352;28;20152;-78
2023/07/22 14:48:36;;;;;;;1.50;0.98;;;;;;;;;;4993507;28;20046;-78
2023/07/22 14:51:03;;;;;;;1.17;1.17;;;;;;;;;;5005345;28;20045;-79
2023/07/22 14:53:31;;;;;;;1.42;1.00;;;;;;;;;;5004232;28;20073;-78
2023/07/22 14:55:58;;;;;;;3.60;1.00;;;;;;;;;;5006770;28;20190;-78
2023/07/22 14:58:26;;;;;;;1.10;1.05;;;;;;;;;;4976435;28;20055;-78